Time;durP1;ratioP1;P1;durP2;ratioP2;P2;SDS_P1;SDS_P2;PMS_P1;PMS_P2;Temp;Humidity;BMP_temperature;BMP_pressure;BME280_temperature;BME280_humidity;BME280_pressure;Samples;Min_cycle;Max_cycle;Signal;HPM_P1;HPM_P2
2023/04/02 00:03:43;;;;;;;2.63;1.48;;;;;;;;;;12852517;23;19935;-81
2023/04/02 00:08:47;;;;;;;2.75;1.70;;;;;;;;;;12852538;23;20438;-84
2023/04/02 00:13:50;;;;;;;1.88;1.67;;;;;;;;;;12827284;23;20027;-81
2023/04/02 00:18:52;;;;;;;1.80;1.58;;;;;;;;;;12865305;23;20013;-82
2023/04/02 00:23:54;;;;;;;1.85;1.70;;;;;;;;;;12866419;23;20068;-81
2023/04/02 00:28:55;;;;;;;2.00;1.80;;;;;;;;;;12897405;22;20016;-81
2023/04/02 00:34:03;;;;;;;2.08;1.88;;;;;;;;;;12871141;23;20471;-83
2023/04/02 00:39:09;;;;;;;2.00;1.70;;;;;;;;;;12844273;23;20024;-79
2023/04/02 00:44:11;;;;;;;3.42;1.90;;;;;;;;;;12909978;22;20088;-80
2023/04/02 00:49:21;;;;;;;2.00;1.70;;;;;;;;;;12866035;23;20775;-81
2023/04/02 00:54:24;;;;;;;2.47;1.92;;;;;;;;;;12834215;23;20035;-80
2023/04/02 00:59:35;;;;;;;1.95;1.83;;;;;;;;;;12853548;23;20035;-80
2023/04/02 01:04:36;;;;;;;2.10;1.90;;;;;;;;;;12850271;23;20035;-81
2023/04/02 01:09:54;;;;;;;2.83;2.10;;;;;;;;;;12854136;23;20024;-82
2023/04/02 01:14:58;;;;;;;2.08;1.80;;;;;;;;;;12836104;23;20016;-81
2023/04/02 01:20:17;;;;;;;3.30;1.95;;;;;;;;;;12847023;23;20023;-81
2023/04/02 01:25:27;;;;;;;3.15;1.98;;;;;;;;;;12878064;22;20020;-84
2023/04/02 01:30:28;;;;;;;3.83;2.15;;;;;;;;;;12883703;22;20308;-84
2023/04/02 01:35:32;;;;;;;2.60;2.30;;;;;;;;;;12834973;23;20059;-82
2023/04/02 01:40:42;;;;;;;2.97;2.15;;;;;;;;;;12845120;23;20021;-80
2023/04/02 01:45:43;;;;;;;2.28;2.08;;;;;;;;;;12846845;23;20088;-82
2023/04/02 01:50:44;;;;;;;2.85;2.15;;;;;;;;;;12860179;23;20009;-80
2023/04/02 01:55:49;;;;;;;3.78;2.58;;;;;;;;;;12882135;23;20044;-79
2023/04/02 02:01:00;;;;;;;4.45;3.00;;;;;;;;;;12884551;23;20068;-79
2023/04/02 02:06:02;;;;;;;2.78;2.40;;;;;;;;;;12875374;23;20017;-80
2023/04/02 02:11:03;;;;;;;3.33;2.70;;;;;;;;;;12903877;23;20016;-80
2023/04/02 02:16:05;;;;;;;3.60;2.58;;;;;;;;;;12909246;22;20003;-80
2023/04/02 02:21:09;;;;;;;2.85;2.53;;;;;;;;;;12843001;23;20027;-81
2023/04/02 02:26:11;;;;;;;5.93;2.70;;;;;;;;;;12902821;22;20035;-81
2023/04/02 02:31:18;;;;;;;4.63;3.85;;;;;;;;;;12882798;22;20039;-79
2023/04/02 02:36:23;;;;;;;4.13;2.72;;;;;;;;;;12879664;23;20035;-80
2023/04/02 02:41:40;;;;;;;4.50;3.40;;;;;;;;;;12866271;23;20017;-81
2023/04/02 02:47:08;;;;;;;5.65;3.17;;;;;;;;;;12825547;23;20017;-81
2023/04/02 02:52:13;;;;;;;4.80;3.60;;;;;;;;;;12894568;22;20005;-82
2023/04/02 02:57:27;;;;;;;3.80;3.40;;;;;;;;;;12893982;22;20016;-82
2023/04/02 03:02:28;;;;;;;4.50;3.75;;;;;;;;;;12841452;23;20023;-81
2023/04/02 03:07:30;;;;;;;4.72;3.45;;;;;;;;;;12843794;23;20028;-81
2023/04/02 03:12:35;;;;;;;6.10;3.97;;;;;;;;;;12834623;23;20088;-82
2023/04/02 03:17:43;;;;;;;4.30;3.67;;;;;;;;;;12842253;23;20012;-82
2023/04/02 03:23:03;;;;;;;4.28;3.65;;;;;;;;;;12821706;23;20028;-81
2023/04/02 03:28:08;;;;;;;4.25;3.72;;;;;;;;;;12842199;23;20461;-80
2023/04/02 03:33:17;;;;;;;4.57;4.18;;;;;;;;;;12874271;23;20286;-80
2023/04/02 03:38:20;;;;;;;4.57;4.18;;;;;;;;;;12851136;22;20124;-79
2023/04/02 03:43:24;;;;;;;4.13;3.72;;;;;;;;;;12874521;23;20036;-81
2023/04/02 03:48:30;;;;;;;4.90;4.38;;;;;;;;;;12850745;22;20004;-80
2023/04/02 03:53:31;;;;;;;4.35;3.95;;;;;;;;;;12875847;22;20004;-80
2023/04/02 03:58:37;;;;;;;5.53;4.05;;;;;;;;;;12845636;23;20110;-79
2023/04/02 04:03:42;;;;;;;5.97;4.50;;;;;;;;;;12822619;23;20013;-78
2023/04/02 04:09:04;;;;;;;5.03;4.20;;;;;;;;;;12796701;23;20417;-81
2023/04/02 04:14:10;;;;;;;4.85;4.28;;;;;;;;;;12773377;23;20043;-80
2023/04/02 04:19:21;;;;;;;5.40;4.28;;;;;;;;;;12860471;23;20015;-82
2023/04/02 04:24:23;;;;;;;4.82;4.32;;;;;;;;;;12838849;23;20020;-80
2023/04/02 04:29:33;;;;;;;5.50;4.82;;;;;;;;;;12793972;23;20153;-79
2023/04/02 04:34:45;;;;;;;5.68;5.05;;;;;;;;;;12796712;23;20894;-82
2023/04/02 04:39:49;;;;;;;5.95;5.10;;;;;;;;;;12833723;23;20009;-83
2023/04/02 04:44:54;;;;;;;5.90;4.63;;;;;;;;;;12830812;23;20013;-82
2023/04/02 04:49:57;;;;;;;5.82;4.60;;;;;;;;;;12856453;23;20024;-81
2023/04/02 04:55:03;;;;;;;5.18;4.68;;;;;;;;;;12825762;23;20012;-81
2023/04/02 05:00:18;;;;;;;6.35;4.45;;;;;;;;;;12772401;23;20000;-78
2023/04/02 05:05:24;;;;;;;5.07;4.57;;;;;;;;;;12794672;23;20009;-82
2023/04/02 05:10:38;;;;;;;6.38;4.95;;;;;;;;;;12759540;23;20590;-83
2023/04/02 05:15:44;;;;;;;4.93;4.22;;;;;;;;;;12787724;23;20021;-82
2023/04/02 05:20:51;;;;;;;6.43;4.45;;;;;;;;;;12787385;23;20039;-82
2023/04/02 05:26:11;;;;;;;5.07;4.57;;;;;;;;;;12795491;23;20028;-81
2023/04/02 05:31:20;;;;;;;4.88;4.38;;;;;;;;;;12787177;23;20028;-80
2023/04/02 05:36:28;;;;;;;5.40;4.60;;;;;;;;;;12758476;23;20107;-81
2023/04/02 05:41:35;;;;;;;5.32;4.82;;;;;;;;;;12785713;23;20036;-82
2023/04/02 05:46:45;;;;;;;4.88;4.40;;;;;;;;;;12788088;23;20020;-87
2023/04/02 05:51:47;;;;;;;5.80;4.50;;;;;;;;;;12758840;23;20017;-82
2023/04/02 05:56:51;;;;;;;4.88;4.38;;;;;;;;;;12756389;23;20041;-84
2023/04/02 06:02:01;;;;;;;5.95;4.97;;;;;;;;;;12780380;23;20707;-81
2023/04/02 06:07:21;;;;;;;5.82;5.05;;;;;;;;;;12782619;23;20037;-86
2023/04/02 06:12:26;;;;;;;5.68;5.05;;;;;;;;;;12818071;23;19993;-81
2023/04/02 06:17:29;;;;;;;5.88;5.32;;;;;;;;;;12806660;23;20015;-80
2023/04/02 06:22:35;;;;;;;7.22;5.82;;;;;;;;;;12796639;23;20022;-80
2023/04/02 06:27:40;;;;;;;6.07;5.07;;;;;;;;;;12783414;23;20394;-83
2023/04/02 06:32:46;;;;;;;7.65;5.85;;;;;;;;;;12760140;23;20020;-83
2023/04/02 06:37:52;;;;;;;6.18;5.50;;;;;;;;;;12787095;23;20517;-82
2023/04/02 06:42:58;;;;;;;6.80;6.20;;;;;;;;;;12801063;23;20017;-82
2023/04/02 06:48:14;;;;;;;9.50;6.60;;;;;;;;;;12796070;23;20049;-82
2023/04/02 06:53:23;;;;;;;7.60;6.30;;;;;;;;;;12812378;23;20007;-83
2023/04/02 06:58:25;;;;;;;7.03;6.32;;;;;;;;;;12841727;23;20009;-80
2023/04/02 07:03:28;;;;;;;6.68;5.65;;;;;;;;;;12816738;23;20020;-80
2023/04/02 07:08:31;;;;;;;8.10;6.47;;;;;;;;;;12819366;23;20048;-80
2023/04/02 07:13:31;;;;;;;8.40;6.35;;;;;;;;;;12817183;23;20110;-83
2023/04/02 07:18:32;;;;;;;7.10;6.28;;;;;;;;;;12786769;23;20822;-81
2023/04/02 07:23:36;;;;;;;7.40;6.05;;;;;;;;;;12787976;23;20017;-81
2023/04/02 07:28:36;;;;;;;8.25;7.05;;;;;;;;;;12788543;23;20403;-80
2023/04/02 07:33:37;;;;;;;4.43;3.33;;;;;;;;;;12795733;23;20020;-78
2023/04/02 07:38:37;;;;;;;1.40;0.80;;;;;;;;;;12791831;23;20022;-81
2023/04/02 07:43:38;;;;;;;0.83;0.70;;;;;;;;;;12798058;23;20259;-80
2023/04/02 07:48:39;;;;;;;1.98;0.70;;;;;;;;;;12784439;23;20268;-79
2023/04/02 07:53:40;;;;;;;1.10;1.00;;;;;;;;;;12801567;23;20009;-78
2023/04/02 07:58:41;;;;;;;0.90;0.80;;;;;;;;;;12778184;23;20889;-80
2023/04/02 08:03:41;;;;;;;0.80;0.80;;;;;;;;;;12778169;23;20244;-79
2023/04/02 08:08:42;;;;;;;1.52;1.30;;;;;;;;;;12779436;23;20025;-83
2023/04/02 08:13:43;;;;;;;0.90;0.80;;;;;;;;;;12753328;23;20021;-81
2023/04/02 08:18:46;;;;;;;1.15;0.70;;;;;;;;;;12776162;23;20017;-80
2023/04/02 08:23:46;;;;;;;0.93;0.90;;;;;;;;;;12776974;23;20013;-79
2023/04/02 08:28:48;;;;;;;1.45;0.77;;;;;;;;;;12778715;23;20025;-80
2023/04/02 08:33:49;;;;;;;1.43;0.63;;;;;;;;;;12778774;23;20024;-79
2023/04/02 08:38:51;;;;;;;1.23;0.85;;;;;;;;;;12785888;23;20232;-79
2023/04/02 08:44:04;;;;;;;0.80;0.70;;;;;;;;;;12786578;23;20012;-79
2023/04/02 08:49:32;;;;;;;0.73;0.70;;;;;;;;;;12784658;23;20052;-80
2023/04/02 08:54:36;;;;;;;1.05;0.90;;;;;;;;;;12810121;23;20027;-80
2023/04/02 08:59:38;;;;;;;1.17;0.85;;;;;;;;;;12812501;23;20031;-82
2023/04/02 09:04:40;;;;;;;0.50;0.50;;;;;;;;;;12783536;23;20417;-80
2023/04/02 09:09:40;;;;;;;0.88;0.70;;;;;;;;;;12781003;23;20017;-79
2023/04/02 09:14:43;;;;;;;1.02;0.60;;;;;;;;;;12782262;23;20609;-78
2023/04/02 09:19:47;;;;;;;0.57;0.50;;;;;;;;;;12782492;23;20449;-79
2023/04/02 09:24:57;;;;;;;0.70;0.70;;;;;;;;;;12764923;23;20020;-78
2023/04/02 09:30:20;;;;;;;1.52;1.05;;;;;;;;;;12782484;23;20032;-80
2023/04/02 09:35:24;;;;;;;1.83;0.80;;;;;;;;;;12789952;23;20080;-80
2023/04/02 09:40:26;;;;;;;1.33;0.80;;;;;;;;;;12780604;23;20024;-81
2023/04/02 09:45:27;;;;;;;0.73;0.70;;;;;;;;;;12792146;23;20013;-81
2023/04/02 09:50:30;;;;;;;1.05;0.77;;;;;;;;;;12782272;23;20021;-83
2023/04/02 09:55:31;;;;;;;1.10;0.60;;;;;;;;;;12784271;23;20015;-82
2023/04/02 10:00:31;;;;;;;1.60;0.80;;;;;;;;;;12779037;23;20096;-81
2023/04/02 10:05:32;;;;;;;1.05;0.95;;;;;;;;;;12785612;23;20075;-81
2023/04/02 10:10:43;;;;;;;1.30;0.90;;;;;;;;;;12780927;23;20025;-80
2023/04/02 10:16:02;;;;;;;0.80;0.80;;;;;;;;;;12793371;23;20029;-81
2023/04/02 10:21:03;;;;;;;1.88;1.15;;;;;;;;;;12816168;23;20020;-81
2023/04/02 10:26:10;;;;;;;1.65;0.90;;;;;;;;;;12803189;23;20020;-80
2023/04/02 10:31:24;;;;;;;0.95;0.80;;;;;;;;;;12791093;23;20439;-79
2023/04/02 10:36:47;;;;;;;1.55;0.90;;;;;;;;;;12799301;23;20020;-80
2023/04/02 10:41:52;;;;;;;1.10;1.00;;;;;;;;;;12788360;23;20018;-80
2023/04/02 10:46:53;;;;;;;1.73;0.80;;;;;;;;;;12782011;23;20024;-81
2023/04/02 10:52:07;;;;;;;0.77;0.77;;;;;;;;;;12781764;23;20040;-80
2023/04/02 10:57:11;;;;;;;1.07;1.00;;;;;;;;;;12800739;23;20027;-79
2023/04/02 11:02:38;;;;;;;1.17;0.93;;;;;;;;;;12818151;23;20726;-81
2023/04/02 11:07:53;;;;;;;1.00;0.93;;;;;;;;;;12783254;23;20564;-83
2023/04/02 11:12:56;;;;;;;1.13;1.00;;;;;;;;;;12757449;23;20025;-81
2023/04/02 11:17:57;;;;;;;1.35;1.08;;;;;;;;;;12782441;23;20072;-79
2023/04/02 11:23:11;;;;;;;2.33;1.75;;;;;;;;;;12784748;23;20021;-79
2023/04/02 11:28:31;;;;;;;1.30;1.10;;;;;;;;;;12838818;23;20077;-79
2023/04/02 11:33:34;;;;;;;1.67;1.33;;;;;;;;;;12812470;23;20017;-80
2023/04/02 11:38:45;;;;;;;1.48;1.38;;;;;;;;;;12789597;23;20501;-82
2023/04/02 11:43:46;;;;;;;2.65;1.80;;;;;;;;;;12787196;23;20405;-83
2023/04/02 11:48:47;;;;;;;3.58;2.65;;;;;;;;;;12808803;23;20106;-81
2023/04/02 11:53:52;;;;;;;1.40;1.30;;;;;;;;;;12821774;23;20012;-82
2023/04/02 11:59:09;;;;;;;2.25;1.50;;;;;;;;;;12792411;23;20922;-82
2023/04/02 12:04:18;;;;;;;1.52;1.40;;;;;;;;;;12798306;23;20005;-82
2023/04/02 12:09:25;;;;;;;2.08;1.70;;;;;;;;;;12802655;23;20021;-83
2023/04/02 12:14:35;;;;;;;1.77;1.60;;;;;;;;;;12787741;23;20028;-84
2023/04/02 12:19:35;;;;;;;1.92;1.67;;;;;;;;;;12783662;23;20013;-82
2023/04/02 12:24:36;;;;;;;1.65;1.55;;;;;;;;;;12785396;23;20024;-84
2023/04/02 12:29:37;;;;;;;2.58;1.92;;;;;;;;;;12799417;23;20032;-83
2023/04/02 12:34:44;;;;;;;1.85;1.67;;;;;;;;;;12782862;23;20095;-83
2023/04/02 12:39:50;;;;;;;2.05;1.85;;;;;;;;;;12810682;23;20013;-83
2023/04/02 12:44:50;;;;;;;2.78;2.03;;;;;;;;;;12791862;23;20039;-80
2023/04/02 12:49:52;;;;;;;1.80;1.60;;;;;;;;;;12800555;23;20079;-83
2023/04/02 12:55:00;;;;;;;1.60;1.50;;;;;;;;;;12782321;23;20013;-79
2023/04/02 13:00:05;;;;;;;1.80;1.52;;;;;;;;;;12780501;23;20068;-82
2023/04/02 13:05:05;;;;;;;2.40;1.70;;;;;;;;;;12784439;23;20016;-81
2023/04/02 13:10:23;;;;;;;1.90;1.80;;;;;;;;;;12792557;23;20524;-82
2023/04/02 13:15:30;;;;;;;2.25;1.85;;;;;;;;;;12800588;23;20021;-81
2023/04/02 13:20:30;;;;;;;2.20;1.92;;;;;;;;;;12815853;23;19993;-83
2023/04/02 13:25:34;;;;;;;2.60;2.30;;;;;;;;;;12841614;23;19997;-81
2023/04/02 13:30:36;;;;;;;2.40;2.08;;;;;;;;;;12845070;23;20004;-82
2023/04/02 13:35:38;;;;;;;3.60;2.75;;;;;;;;;;12844993;23;19997;-81
2023/04/02 13:40:38;;;;;;;2.60;2.20;;;;;;;;;;12841753;23;20009;-84
2023/04/02 13:45:41;;;;;;;2.95;2.63;;;;;;;;;;12855173;23;20020;-81
2023/04/02 13:50:42;;;;;;;3.95;2.97;;;;;;;;;;12904940;22;20064;-81
2023/04/02 13:55:43;;;;;;;2.80;2.08;;;;;;;;;;12878014;22;20062;-82
2023/04/02 14:00:45;;;;;;;3.30;2.30;;;;;;;;;;12894374;23;20012;-80
2023/04/02 14:06:04;;;;;;;1.95;1.83;;;;;;;;;;12894819;22;20068;-77
2023/04/02 14:11:12;;;;;;;2.22;1.77;;;;;;;;;;12868089;22;20048;-79
2023/04/02 14:16:25;;;;;;;2.95;1.92;;;;;;;;;;12895670;23;20791;-79
2023/04/02 14:21:41;;;;;;;2.25;2.05;;;;;;;;;;12831273;23;20009;-82
2023/04/02 14:26:48;;;;;;;3.70;2.22;;;;;;;;;;12849443;23;20017;-82
2023/04/02 14:32:06;;;;;;;3.38;1.90;;;;;;;;;;12842429;23;20015;-81
2023/04/02 14:37:19;;;;;;;1.80;1.42;;;;;;;;;;12816954;23;20040;-80
2023/04/02 14:42:30;;;;;;;2.22;1.48;;;;;;;;;;12850312;23;20337;-79
2023/04/02 14:47:59;;;;;;;1.60;1.50;;;;;;;;;;12831752;23;20031;-82
2023/04/02 14:53:05;;;;;;;1.98;1.77;;;;;;;;;;12851542;23;20008;-81
2023/04/02 14:58:13;;;;;;;1.70;1.55;;;;;;;;;;12853493;23;20013;-82
2023/04/02 15:03:16;;;;;;;2.10;1.90;;;;;;;;;;12824901;23;20026;-80
2023/04/02 15:08:20;;;;;;;2.30;2.10;;;;;;;;;;12846638;23;20383;-79
2023/04/02 15:13:23;;;;;;;2.80;2.00;;;;;;;;;;12826336;23;20013;-82
2023/04/02 15:18:24;;;;;;;1.80;1.70;;;;;;;;;;12856729;23;20005;-83
2023/04/02 15:23:46;;;;;;;2.53;1.83;;;;;;;;;;12858527;23;20015;-82
2023/04/02 15:28:58;;;;;;;2.05;1.90;;;;;;;;;;12863234;23;20081;-81
2023/04/02 15:34:05;;;;;;;2.90;2.17;;;;;;;;;;12841995;23;20016;-82
2023/04/02 15:39:22;;;;;;;2.30;2.10;;;;;;;;;;12892458;22;20020;-81
2023/04/02 15:44:22;;;;;;;2.88;2.15;;;;;;;;;;12905607;22;20036;-81
2023/04/02 15:49:35;;;;;;;2.42;2.22;;;;;;;;;;12858629;22;20024;-82
2023/04/02 15:54:45;;;;;;;2.07;1.87;;;;;;;;;;12901883;22;20072;-81
2023/04/02 16:00:06;;;;;;;4.07;2.20;;;;;;;;;;12846704;23;20019;-82
2023/04/02 16:05:11;;;;;;;2.42;2.17;;;;;;;;;;12837956;23;20169;-82
2023/04/02 16:10:19;;;;;;;3.13;2.50;;;;;;;;;;12866633;23;20052;-81
2023/04/02 16:15:22;;;;;;;2.30;2.08;;;;;;;;;;12850597;23;20013;-80
2023/04/02 16:20:26;;;;;;;2.80;2.03;;;;;;;;;;12848775;23;20716;-70
2023/04/02 16:25:28;;;;;;;2.05;1.95;;;;;;;;;;12843099;23;20095;-76
2023/04/02 16:30:48;;;;;;;2.83;2.28;;;;;;;;;;12817152;23;20055;-81
2023/04/02 16:35:58;;;;;;;2.38;1.98;;;;;;;;;;12884703;23;20017;-80
2023/04/02 16:40:58;;;;;;;3.10;2.70;;;;;;;;;;12822198;22;20009;-83
2023/04/02 16:46:08;;;;;;;2.60;2.30;;;;;;;;;;12902154;23;19996;-82
2023/04/02 16:51:38;;;;;;;4.40;2.50;;;;;;;;;;12849586;23;20759;-84
2023/04/02 16:56:42;;;;;;;2.95;2.40;;;;;;;;;;12733457;23;20016;-85
2023/04/02 17:01:55;;;;;;;4.63;2.90;;;;;;;;;;12839049;23;20008;-80
2023/04/02 17:07:16;;;;;;;4.30;3.38;;;;;;;;;;12902564;22;20004;-81
2023/04/02 17:23:14;;;;;;;4.88;3.38;;;;;;;;;;12778361;23;20100;-84
2023/04/02 17:28:24;;;;;;;5.80;3.00;;;;;;;;;;12733123;23;20033;-82
2023/04/02 17:33:26;;;;;;;4.55;3.35;;;;;;;;;;12704139;23;20040;-83
2023/04/02 17:39:02;;;;;;;3.38;2.78;;;;;;;;;;12700790;23;20096;-82
2023/04/02 17:44:05;;;;;;;2.90;2.65;;;;;;;;;;12485081;23;20022;-83
2023/04/02 17:49:18;;;;;;;4.10;2.92;;;;;;;;;;12744488;23;20084;-84
2023/04/02 17:54:26;;;;;;;4.97;3.25;;;;;;;;;;12746808;23;20014;-82
2023/04/02 17:59:42;;;;;;;6.57;3.15;;;;;;;;;;12709699;23;20005;-82
2023/04/02 18:04:51;;;;;;;4.18;3.00;;;;;;;;;;12705233;23;20017;-82
2023/04/02 18:09:54;;;;;;;3.55;2.80;;;;;;;;;;12781918;23;20067;-83
2023/04/02 18:20:20;;;;;;;4.85;2.95;;;;;;;;;;12905759;23;19904;-79
2023/04/02 18:25:40;;;;;;;4.38;2.97;;;;;;;;;;12893018;23;20020;-81
2023/04/02 18:30:40;;;;;;;3.20;2.75;;;;;;;;;;12857788;23;20048;-82
2023/04/02 18:35:46;;;;;;;3.35;2.60;;;;;;;;;;12880640;23;20057;-80
2023/04/02 18:40:59;;;;;;;3.42;2.45;;;;;;;;;;12817036;23;20012;-80
2023/04/02 18:46:19;;;;;;;4.35;2.60;;;;;;;;;;12862237;23;20060;-80
2023/04/02 18:51:22;;;;;;;4.60;2.72;;;;;;;;;;12809489;23;20112;-82
2023/04/02 18:56:23;;;;;;;2.90;2.40;;;;;;;;;;12863550;23;20084;-78
2023/04/02 19:01:31;;;;;;;5.78;2.60;;;;;;;;;;12868142;23;20012;-81
2023/04/02 19:06:36;;;;;;;3.42;2.58;;;;;;;;;;12860763;22;20336;-80
2023/04/02 19:11:36;;;;;;;3.33;2.72;;;;;;;;;;12824361;23;20011;-80
2023/04/02 19:16:39;;;;;;;3.88;2.70;;;;;;;;;;12838398;23;20089;-81
2023/04/02 19:21:40;;;;;;;;;;;;;;;;;;12837630;23;20076;-80
2023/04/02 19:26:48;;;;;;;4.10;2.80;;;;;;;;;;12869340;23;19969;-82
2023/04/02 19:32:10;;;;;;;4.18;2.97;;;;;;;;;;12870897;23;20016;-83
2023/04/02 19:37:37;;;;;;;3.35;3.05;;;;;;;;;;12823760;23;20023;-82
2023/04/02 19:42:51;;;;;;;3.70;2.63;;;;;;;;;;12796664;23;20122;-79
2023/04/02 19:47:52;;;;;;;4.18;2.88;;;;;;;;;;12848743;23;20008;-81
2023/04/02 19:52:52;;;;;;;3.58;3.22;;;;;;;;;;12855810;23;20012;-79
2023/04/02 19:57:56;;;;;;;3.80;3.13;;;;;;;;;;12856508;23;20008;-81
2023/04/02 20:02:57;;;;;;;3.25;2.75;;;;;;;;;;12872936;23;20428;-81
2023/04/02 20:07:57;;;;;;;4.32;2.75;;;;;;;;;;12859334;23;20024;-80
2023/04/02 20:12:58;;;;;;;3.40;2.88;;;;;;;;;;12862810;23;20017;-80
2023/04/02 20:17:59;;;;;;;4.07;2.80;;;;;;;;;;12850987;23;20013;-82
2023/04/02 20:22:59;;;;;;;3.13;2.60;;;;;;;;;;12817885;23;20339;-81
2023/04/02 20:28:02;;;;;;;4.72;2.70;;;;;;;;;;12811513;23;20442;-80
2023/04/02 20:33:03;;;;;;;3.60;2.22;;;;;;;;;;12842940;23;20019;-81
2023/04/02 20:38:07;;;;;;;2.90;2.35;;;;;;;;;;12859248;23;20007;-80
2023/04/02 20:43:07;;;;;;;;;;;;;;;;;;12875749;23;20056;-79
2023/04/02 20:48:08;;;;;;;2.90;2.13;;;;;;;;;;12870933;23;19923;-80
2023/04/02 20:53:08;;;;;;;5.90;2.57;;;;;;;;;;12857247;23;20104;-80
2023/04/02 20:58:14;;;;;;;2.55;1.88;;;;;;;;;;12863089;23;20251;-82
2023/04/02 21:03:15;;;;;;;2.97;2.08;;;;;;;;;;12863863;23;20023;-82
2023/04/02 21:08:15;;;;;;;3.83;2.13;;;;;;;;;;12854982;23;20017;-83
2023/04/02 21:13:15;;;;;;;2.97;2.33;;;;;;;;;;12871544;23;20020;-85
2023/04/02 21:18:16;;;;;;;2.47;2.00;;;;;;;;;;12839140;23;20251;-78
2023/04/02 21:23:17;;;;;;;10.15;5.32;;;;;;;;;;12868669;23;20097;-83
2023/04/02 21:28:18;;;;;;;2.47;2.10;;;;;;;;;;12881893;23;20020;-87
2023/04/02 21:33:18;;;;;;;2.25;1.75;;;;;;;;;;12864508;23;20001;-86
2023/04/02 21:38:20;;;;;;;3.20;1.92;;;;;;;;;;12892818;23;20013;-84
2023/04/02 21:43:21;;;;;;;4.82;2.25;;;;;;;;;;12867253;23;20005;-82
2023/04/02 21:48:23;;;;;;;3.58;2.28;;;;;;;;;;12897966;23;20029;-85
2023/04/02 21:53:23;;;;;;;3.33;2.03;;;;;;;;;;12889946;23;20008;-83
2023/04/02 21:58:23;;;;;;;3.23;2.17;;;;;;;;;;12897618;23;20069;-87
2023/04/02 22:03:24;;;;;;;3.80;2.03;;;;;;;;;;12876298;23;20009;-86
2023/04/02 22:08:25;;;;;;;3.13;2.10;;;;;;;;;;12854698;23;20289;-85
2023/04/02 22:13:27;;;;;;;2.90;2.10;;;;;;;;;;12887639;23;20015;-85
2023/04/02 22:18:27;;;;;;;3.55;2.03;;;;;;;;;;12853331;23;20013;-84
2023/04/02 22:23:28;;;;;;;2.22;1.77;;;;;;;;;;12887961;22;20088;-84
2023/04/02 22:28:30;;;;;;;2.33;2.05;;;;;;;;;;12868317;23;20072;-85
2023/04/02 22:33:31;;;;;;;2.95;1.92;;;;;;;;;;12876651;23;19992;-84
2023/04/02 22:38:32;;;;;;;2.70;2.00;;;;;;;;;;12888043;23;20072;-85
2023/04/02 22:43:33;;;;;;;2.15;1.95;;;;;;;;;;12870962;22;20019;-81
2023/04/02 22:48:34;;;;;;;2.53;2.03;;;;;;;;;;12900186;22;20257;-81
2023/04/02 22:53:35;;;;;;;2.63;1.98;;;;;;;;;;12874773;22;20021;-82
2023/04/02 22:58:39;;;;;;;3.33;2.03;;;;;;;;;;12876094;22;20013;-81
2023/04/02 23:03:47;;;;;;;3.13;1.85;;;;;;;;;;12875218;22;20112;-81
2023/04/02 23:08:47;;;;;;;2.47;1.92;;;;;;;;;;12905677;22;20028;-83
2023/04/02 23:18:55;;;;;;;2.60;2.30;;;;;;;;;;12784671;23;20027;-83
2023/04/02 23:23:55;;;;;;;;;;;;;;;;;;12832959;23;20069;-79
2023/04/02 23:28:58;;;;;;;3.40;2.30;;;;;;;;;;12917706;23;19924;-82
2023/04/02 23:33:58;;;;;;;2.40;2.17;;;;;;;;;;12890129;23;20000;-82
2023/04/02 23:39:03;;;;;;;4.78;2.10;;;;;;;;;;12888606;23;19996;-82
2023/04/02 23:44:07;;;;;;;3.47;2.40;;;;;;;;;;12914680;23;19993;-84
2023/04/02 23:49:08;;;;;;;3.10;2.20;;;;;;;;;;12868104;23;20012;-84
2023/04/02 23:54:12;;;;;;;2.70;2.08;;;;;;;;;;12834211;23;20016;-84
2023/04/02 23:59:16;;;;;;;3.10;2.20;;;;;;;;;;12842787;23;20013;-85
